Newcastle, Australia
Current Conditions -  °F | °C
As of 6:00 PM on Saturday 29 Nov 2014 (Local Time) from YSRI Reporting Station
Broken Clouds Broken Clouds  
Wind Chill: 82°   Ceiling: 10500
Heat Index: 82°   Visibility: 6mi
Dew Point: 59°   Wind: 13mph
Humidity: 45%   Direction: 80°E
Pressure: 29.88"   Gusts: NA
Location:  32.93°S, 151.78°E
Report Text: YSRI 290700Z AUTO 08011KT 9999 // BKN105 28/15 Q1012
Loading
Personal Weather Stations






























Interactive Weather Map New forecast layout! Learn more

10-Day Weather Forecast

Advertisements
Track Severe Weather on mobile